Time;durP1;ratioP1;P1;durP2;ratioP2;P2;SDS_P1;SDS_P2;PMS_P1;PMS_P2;Temp;Humidity;BMP_temperature;BMP_pressure;BME280_temperature;BME280_humidity;BME280_pressure;Samples;Min_cycle;Max_cycle;Signal;HPM_P1;HPM_P2
2023/03/03 00:01:13;;;;;;;;;;;7.40;68.90;;;7.89;47.68;98915.50;5041246;27;124338;-76
2023/03/03 00:03:39;;;;;;;;;;;7.40;68.90;;;7.89;47.75;98915.50;5042898;27;123343;-76
2023/03/03 00:06:09;;;;;;;;;;;7.40;68.90;;;7.89;47.59;98912.75;5051323;27;114679;-77
2023/03/03 00:08:36;;;;;;;;;;;7.40;69.00;;;7.89;47.41;98922.94;5041410;27;114033;-76
2023/03/03 00:11:05;;;;;;;;;;;7.40;69.00;;;7.87;47.58;98917.75;5045730;27;124941;-76
2023/03/03 00:13:32;;;;;;;;;;;7.40;69.10;;;7.86;47.76;98921.59;5050316;27;124559;-77
2023/03/03 00:16:41;;;;;;;;;;;7.40;69.10;;;7.86;47.84;98920.78;5034368;27;113445;-76
2023/03/03 00:19:16;;;;;;;;;;;7.40;69.20;;;7.84;47.70;98923.00;5052303;27;113112;-76
2023/03/03 00:21:48;;;;;;;;;;;7.40;69.30;;;7.81;47.72;98912.59;5044061;27;124210;-77
2023/03/03 00:24:42;;;;;;;;;;;7.30;69.20;;;7.79;47.82;98915.63;5038115;27;123547;-76
2023/03/03 00:27:28;;;;;;;;;;;7.30;69.20;;;7.77;47.84;98917.84;5052740;27;114301;-76
2023/03/03 00:29:57;;;;;;;;;;;7.30;69.30;;;7.74;47.95;98921.19;5042639;27;113677;-76
2023/03/03 00:32:24;;;;;;;;;;;7.30;69.30;;;7.73;47.80;98928.59;5050188;27;124391;-77
2023/03/03 00:34:53;;;;;;;;;;;7.30;69.40;;;7.72;47.60;98918.72;5050815;27;123907;-76
2023/03/03 00:37:22;;;;;;;;;;;7.30;69.40;;;7.70;47.85;98918.19;5050405;27;113995;-76
2023/03/03 00:39:49;;;;;;;;;;;7.20;69.40;;;7.68;48.11;98914.06;5049613;27;113829;-76
2023/03/03 00:42:17;;;;;;;;;;;7.20;69.40;;;7.67;47.92;98917.94;5045897;27;123942;-76
2023/03/03 00:44:45;;;;;;;;;;;7.20;69.50;;;7.65;47.95;98914.66;5038120;27;123836;-76
2023/03/03 00:47:37;;;;;;;;;;;7.20;69.60;;;7.64;48.07;98913.84;5040705;27;115261;-77
2023/03/03 00:50:06;;;;;;;;;;;7.20;69.70;;;7.61;47.82;98913.63;5051794;27;114232;-76
2023/03/03 00:52:44;;;;;;;;;;;7.20;69.70;;;7.58;48.13;98908.72;5047084;27;124342;-76
2023/03/03 00:55:11;;;;;;;;;;;7.20;69.70;;;7.55;48.27;98909.25;5044476;27;124256;-75
2023/03/03 00:57:37;;;;;;;;;;;7.10;69.70;;;7.55;48.04;98909.25;5049902;27;114310;-76
2023/03/03 01:00:04;;;;;;;;;;;7.10;69.80;;;7.55;48.13;98906.50;5054944;27;114350;-77
2023/03/03 01:02:31;;;;;;;;;;;7.10;69.90;;;7.52;48.01;98911.50;5054097;27;124396;-76
2023/03/03 01:04:58;;;;;;;;;;;7.10;69.90;;;7.49;48.31;98903.81;5049017;27;123101;-76
2023/03/03 01:07:25;;;;;;;;;;;7.10;69.90;;;7.46;48.54;98906.31;5052755;27;114249;-77
2023/03/03 01:09:51;;;;;;;;;;;7.00;69.80;;;7.42;48.29;98906.09;5026752;27;113322;-76
2023/03/03 01:12:17;;;;;;;;;;;7.00;69.90;;;7.37;48.27;98900.66;5051034;27;124192;-76
2023/03/03 01:14:44;;;;;;;;;;;7.00;69.90;;;7.34;48.56;98906.72;5041511;27;123996;-76
2023/03/03 01:17:11;;;;;;;;;;;6.90;69.90;;;7.31;48.59;98904.56;5050853;27;114476;-76
2023/03/03 01:19:37;;;;;;;;;;;6.90;70.10;;;7.27;48.50;98909.78;5050563;27;113427;-76
2023/03/03 01:22:03;;;;;;;;;;;6.90;70.20;;;7.26;48.73;98910.09;5050412;27;124139;-76
2023/03/03 01:24:29;;;;;;;;;;;6.90;70.20;;;7.23;48.82;98899.69;5048683;27;123379;-77
2023/03/03 01:26:56;;;;;;;;;;;6.80;70.30;;;7.21;48.36;98910.13;5056591;27;113355;-79
2023/03/03 01:29:22;;;;;;;;;;;6.80;70.40;;;7.20;48.71;98905.72;5038262;27;111708;-78
2023/03/03 01:31:49;;;;;;;;;;;6.80;70.60;;;7.18;48.95;98906.03;5067656;27;124361;-77
2023/03/03 01:34:16;;;;;;;;;;;6.70;70.60;;;7.16;49.22;98910.16;5052651;27;123364;-77
2023/03/03 01:36:42;;;;;;;;;;;6.70;70.60;;;7.15;48.76;98905.78;5050594;27;114412;-76
2023/03/03 01:39:10;;;;;;;;;;;6.70;70.70;;;7.14;48.94;98909.63;5035716;27;113690;-76
2023/03/03 01:41:36;;;;;;;;;;;6.70;70.80;;;7.12;48.77;98915.44;5042292;27;124013;-76
2023/03/03 01:44:03;;;;;;;;;;;6.70;70.90;;;7.13;49.05;98913.50;5066788;27;123547;-75
2023/03/03 01:46:45;;;;;;;;;;;6.60;70.80;;;7.14;48.79;98910.44;5044902;27;114561;-77
2023/03/03 01:49:15;;;;;;;;;;;6.60;70.90;;;7.11;49.06;98905.53;5050980;27;113436;-76
2023/03/03 01:52:03;;;;;;;;;;;6.60;70.90;;;7.12;48.85;98901.69;5048683;27;123951;-77
2023/03/03 01:54:34;;;;;;;;;;;6.60;70.90;;;7.11;49.44;98904.72;5039392;27;123548;-76
2023/03/03 01:57:04;;;;;;;;;;;6.60;70.90;;;7.07;49.17;98905.28;5044727;27;114639;-76
2023/03/03 01:59:33;;;;;;;;;;;6.60;71.00;;;7.03;49.26;98901.47;5045998;27;113695;-76
2023/03/03 02:02:00;;;;;;;;;;;6.60;71.10;;;7.02;49.36;98897.09;5038825;27;125173;-76
2023/03/03 02:04:26;;;;;;;;;;;6.60;71.10;;;7.02;48.92;98896.28;5069455;27;123350;-75
2023/03/03 02:07:07;;;;;;;;;;;6.60;71.10;;;7.02;49.33;98891.59;5031963;27;113204;-76
2023/03/03 02:09:40;;;;;;;;;;;6.60;71.20;;;7.01;48.81;98891.88;5039026;27;113864;-77
2023/03/03 02:12:08;;;;;;;;;;;6.50;71.20;;;6.97;49.17;98888.88;5032900;27;124237;-76
2023/03/03 02:14:34;;;;;;;;;;;6.50;71.20;;;6.96;49.21;98881.75;5036384;27;126001;-77
2023/03/03 02:17:00;;;;;;;;;;;6.50;71.30;;;6.94;49.43;98881.22;5041550;27;114498;-77
2023/03/03 02:19:32;;;;;;;;;;;6.50;71.40;;;6.94;49.33;98883.97;5034739;27;113665;-78
2023/03/03 02:22:01;;;;;;;;;;;6.50;71.50;;;6.92;49.57;98875.19;5049685;27;124981;-77
2023/03/03 02:24:50;;;;;;;;;;;6.50;71.50;;;6.91;48.90;98879.06;5051284;27;123843;-77
2023/03/03 02:27:17;;;;;;;;;;;6.40;71.50;;;6.88;49.33;98881.53;5047960;27;115387;-77
2023/03/03 02:29:43;;;;;;;;;;;6.40;71.50;;;6.84;49.79;98882.09;5054312;27;114836;-77
2023/03/03 02:32:09;;;;;;;;;;;6.40;71.60;;;6.84;49.51;98878.53;5038254;27;124289;-77
2023/03/03 02:34:50;;;;;;;;;;;6.40;71.70;;;6.83;49.33;98876.91;5049319;27;122855;-77
2023/03/03 02:37:18;;;;;;;;;;;6.40;71.80;;;6.80;49.68;98886.53;5019755;27;113920;-77
2023/03/03 02:39:44;;;;;;;;;;;6.30;71.80;;;6.79;49.47;98875.84;5048426;27;113692;-77
2023/03/03 02:42:17;;;;;;;;;;;6.30;71.80;;;6.79;50.03;98875.84;5048779;27;124272;-76
2023/03/03 02:44:44;;;;;;;;;;;6.30;71.90;;;6.77;49.23;98886.28;5034674;27;125096;-77
2023/03/03 02:47:10;;;;;;;;;;;6.30;72.00;;;6.76;49.59;98882.72;5036861;27;115273;-77
2023/03/03 02:49:36;;;;;;;;;;;6.30;72.00;;;6.77;49.99;98883.53;5061198;27;113492;-77
2023/03/03 02:52:08;;;;;;;;;;;6.30;72.10;;;6.77;49.31;98883.53;5040769;27;124915;-77
2023/03/03 02:54:35;;;;;;;;;;;6.30;72.10;;;6.77;50.00;98889.03;5046650;27;123828;-76
2023/03/03 02:57:02;;;;;;;;;;;6.30;72.20;;;6.77;49.89;98889.03;5049013;27;114388;-77
2023/03/03 02:59:28;;;;;;;;;;;6.30;72.30;;;6.78;50.14;98894.25;5043581;27;113265;-77
2023/03/03 03:01:55;;;;;;;;;;;6.30;72.30;;;6.78;49.89;98887.94;5043324;27;124284;-77
2023/03/03 03:04:23;;;;;;;;;;;6.30;72.40;;;6.79;50.14;98904.09;5028192;27;123094;-77
2023/03/03 03:06:51;;;;;;;;;;;6.30;72.40;;;6.79;49.49;98892.31;5042873;27;114459;-76
2023/03/03 03:09:18;;;;;;;;;;;6.30;72.40;;;6.78;50.14;98896.16;5030333;28;112659;-77
2023/03/03 03:11:44;;;;;;;;;;;6.30;72.50;;;6.75;50.25;98892.06;5049781;27;124231;-77
2023/03/03 03:14:12;;;;;;;;;;;6.30;72.60;;;6.71;49.72;98896.47;5031092;27;124663;-76
2023/03/03 03:16:39;;;;;;;;;;;6.20;72.50;;;6.71;49.53;98901.16;5032083;27;114337;-77
2023/03/03 03:19:06;;;;;;;;;;;6.20;72.60;;;6.70;49.63;98897.59;5034215;27;113921;-77
2023/03/03 03:21:33;;;;;;;;;;;6.20;72.70;;;6.70;49.98;98889.34;5047210;27;124153;-77
2023/03/03 03:23:59;;;;;;;;;;;6.20;72.80;;;6.70;50.23;98886.59;5049640;27;123980;-77
2023/03/03 03:26:26;;;;;;;;;;;6.90;73.40;;;6.72;49.75;98891.81;5052347;27;114898;-76
2023/03/03 03:28:52;;;;;;;;;;;6.20;72.90;;;6.74;50.30;98897.84;5048202;27;113817;-77
2023/03/03 03:31:20;;;;;;;;;;;6.20;72.90;;;6.71;50.15;98893.72;5050447;27;123936;-78
2023/03/03 03:33:46;;;;;;;;;;;6.20;73.00;;;6.70;50.30;98889.34;5033429;27;122802;-77
2023/03/03 03:36:13;;;;;;;;;;;6.20;73.10;;;6.70;50.07;98894.03;5032771;27;113365;-77
2023/03/03 03:38:39;;;;;;;;;;;6.20;73.10;;;6.73;49.94;98893.47;5033243;27;113551;-77
2023/03/03 03:41:06;;;;;;;;;;;4.60;71.60;;;6.76;49.93;98898.38;5049951;27;123434;-77
2023/03/03 03:43:33;;;;;;;;;;;6.20;73.20;;;6.77;50.18;98895.34;5047118;27;124001;-77
2023/03/03 03:46:00;;;;;;;;;;;6.30;73.90;;;6.81;49.97;98895.59;5044747;27;114239;-77
2023/03/03 03:48:27;;;;;;;;;;;6.30;73.20;;;6.78;49.66;98894.25;5053008;27;113982;-77
2023/03/03 03:50:53;;;;;;;;;;;6.30;73.30;;;6.75;49.83;98897.56;5034190;27;123268;-77
2023/03/03 03:53:19;;;;;;;;;;;6.20;73.10;;;6.71;49.69;98895.66;5052062;27;124021;-77
2023/03/03 03:55:46;;;;;;;;;;;6.20;73.10;;;6.68;50.46;98897.06;5051575;27;114329;-76
2023/03/03 03:58:16;;;;;;;;;;;6.20;73.10;;;6.66;50.18;98895.69;5053265;27;113797;-77
2023/03/03 04:00:44;;;;;;;;;;;6.20;73.10;;;6.64;50.37;98896.00;5031942;27;123250;-77
2023/03/03 04:03:13;;;;;;;;;;;6.20;73.10;;;6.62;50.14;98892.69;5051998;27;123863;-77
2023/03/03 04:05:39;;;;;;;;;;;6.20;73.10;;;6.58;50.30;98886.97;5047339;27;115323;-77
2023/03/03 04:08:06;;;;;;;;;;;6.20;73.10;;;6.56;50.31;98888.34;5054388;27;113864;-77
2023/03/03 04:10:32;;;;;;;;;;;6.10;73.10;;;6.54;50.22;98887.81;5045165;27;124728;-77
2023/03/03 04:12:58;;;;;;;;;;;6.10;73.10;;;6.57;50.65;98887.25;5059790;27;123820;-77
2023/03/03 04:15:25;;;;;;;;;;;6.10;73.20;;;6.58;49.92;98892.47;5053330;27;114836;-77
2023/03/03 04:17:51;;;;;;;;;;;6.10;73.20;;;6.60;50.42;98895.72;5052458;27;113947;-77
2023/03/03 04:20:17;;;;;;;;;;;6.20;73.30;;;6.60;50.26;98895.72;5045641;27;124324;-76
2023/03/03 04:22:44;;;;;;;;;;;6.20;73.30;;;6.61;50.31;98891.88;5044004;27;124119;-77
2023/03/03 04:25:15;;;;;;;;;;;6.20;73.30;;;6.63;50.46;98900.63;5055295;27;114749;-77
2023/03/03 04:27:43;;;;;;;;;;;6.20;73.40;;;6.64;50.23;98902.31;5053091;27;113777;-77
2023/03/03 04:30:11;;;;;;;;;;;6.20;73.40;;;6.68;50.10;98904.47;5050865;27;124328;-77
2023/03/03 04:32:37;;;;;;;;;;;6.20;73.50;;;6.71;50.46;98906.63;5055525;27;123296;-77
2023/03/03 04:35:04;;;;;;;;;;;6.20;73.50;;;6.72;49.91;98913.78;5057571;27;114278;-80
2023/03/03 04:37:33;;;;;;;;;;;6.20;73.50;;;6.73;50.14;98909.94;5058311;27;114199;-77
2023/03/03 04:40:39;;;;;;;;;;;5.90;73.20;;;6.75;50.13;98911.28;5055445;27;123821;-77
2023/03/03 04:43:05;;;;;;;;;;;6.20;73.50;;;6.70;49.91;98910.50;5040687;27;123899;-77
2023/03/03 04:45:31;;;;;;;;;;;6.20;73.40;;;6.70;50.40;98914.06;5051840;27;114477;-76
2023/03/03 04:47:58;;;;;;;;;;;6.20;73.40;;;6.71;49.78;98923.94;5055382;27;113651;-77
2023/03/03 04:50:24;;;;;;;;;;;6.20;73.30;;;6.71;50.10;98917.63;5050282;27;123189;-78
2023/03/03 04:52:50;;;;;;;;;;;6.20;73.30;;;6.70;50.25;98930.53;5042894;27;123731;-77
2023/03/03 04:55:17;;;;;;;;;;;6.20;73.30;;;6.71;50.40;98934.09;5029376;27;113792;-77
2023/03/03 04:57:43;;;;;;;;;;;6.20;73.30;;;6.68;50.33;98934.66;5051100;27;115039;-77
2023/03/03 05:00:12;;;;;;;;;;;6.20;73.30;;;6.66;50.16;98932.19;5047153;27;123428;-77
2023/03/03 05:02:39;;;;;;;;;;;6.20;73.40;;;6.64;50.43;98934.44;5046996;27;123954;-77
2023/03/03 05:05:08;;;;;;;;;;;6.20;73.40;;;6.62;50.08;98929.22;5052833;27;114500;-78
2023/03/03 05:07:35;;;;;;;;;;;6.20;73.50;;;6.60;49.94;98931.41;5024041;27;113081;-76
2023/03/03 05:10:01;;;;;;;;;;;6.10;73.40;;;6.59;50.51;98932.53;5049335;27;124125;-77
2023/03/03 05:12:28;;;;;;;;;;;6.10;73.50;;;6.57;50.31;98928.41;5052402;27;122897;-76
2023/03/03 05:14:54;;;;;;;;;;;6.10;73.60;;;6.55;49.93;98930.63;5052988;27;114340;-77
2023/03/03 05:17:21;;;;;;;;;;;6.20;73.80;;;6.55;50.70;98936.91;5053792;27;113677;-76
2023/03/03 05:19:48;;;;;;;;;;;6.10;73.60;;;6.55;50.17;98925.94;5043707;27;124811;-76
2023/03/03 05:22:14;;;;;;;;;;;6.10;73.70;;;6.54;50.08;98929.81;5046250;27;124873;-77
2023/03/03 05:24:41;;;;;;;;;;;6.10;73.70;;;6.54;50.30;98935.28;5065304;27;115207;-76
2023/03/03 05:27:08;;;;;;;;;;;6.10;73.70;;;6.54;50.22;98934.47;5042667;27;113814;-76
2023/03/03 05:29:34;;;;;;;;;;;6.10;73.70;;;6.53;50.39;98933.66;5050252;27;124774;-76
2023/03/03 05:32:01;;;;;;;;;;;6.10;73.60;;;6.52;50.46;98937.50;5050222;27;123621;-76
2023/03/03 05:34:27;;;;;;;;;;;6.00;73.60;;;6.51;50.41;98941.34;5053326;27;114071;-76
2023/03/03 05:36:53;;;;;;;;;;;6.00;73.70;;;6.55;50.72;98941.59;5046528;27;114400;-76
2023/03/03 05:39:20;;;;;;;;;;;6.10;73.80;;;6.55;50.26;98936.91;5050240;27;124404;-76
2023/03/03 05:41:46;;;;;;;;;;;6.10;73.70;;;6.55;49.87;98939.66;5048250;27;124243;-76
2023/03/03 05:44:12;;;;;;;;;;;6.10;73.60;;;6.55;49.90;98941.59;5048278;27;115382;-76
2023/03/03 05:46:39;;;;;;;;;;;6.10;73.60;;;6.54;50.13;98951.75;5041717;27;115026;-76
2023/03/03 05:49:05;;;;;;;;;;;6.10;73.50;;;6.54;50.62;98954.50;5049017;27;124806;-76
2023/03/03 05:51:32;;;;;;;;;;;6.10;73.70;;;6.55;49.80;98963.56;5053024;27;125400;-76
2023/03/03 05:53:58;;;;;;;;;;;6.10;73.60;;;6.55;49.79;98958.06;5060502;27;114259;-76
2023/03/03 05:56:25;;;;;;;;;;;6.10;73.60;;;6.56;49.90;98966.03;5038611;27;113661;-77
2023/03/03 05:58:51;;;;;;;;;;;6.10;73.60;;;6.56;50.08;98965.22;5049310;27;124647;-76
2023/03/03 06:01:17;;;;;;;;;;;6.10;73.60;;;6.56;50.42;98956.97;5044649;27;122955;-76
2023/03/03 06:03:43;;;;;;;;;;;6.10;73.60;;;6.53;50.56;98966.59;5048939;27;113477;-76
2023/03/03 06:06:11;;;;;;;;;;;6.10;73.50;;;6.50;50.13;98967.16;5042208;27;112769;-76
2023/03/03 06:08:37;;;;;;;;;;;6.10;73.50;;;6.48;50.17;98974.84;5042301;27;124374;-76
2023/03/03 06:11:04;;;;;;;;;;;6.00;73.40;;;6.46;49.71;98966.06;5046766;27;123715;-77
2023/03/03 06:13:31;;;;;;;;;;;6.00;73.50;;;6.46;50.11;98966.06;5050357;27;114622;-77
2023/03/03 06:15:57;;;;;;;;;;;6.00;73.50;;;6.43;49.89;98969.38;5037142;27;112945;-77
2023/03/03 06:18:23;;;;;;;;;;;5.90;73.40;;;6.41;50.37;98975.13;5046039;27;125038;-77
2023/03/03 06:20:51;;;;;;;;;;;5.90;73.40;;;6.39;50.03;98976.53;5041404;27;123765;-77
2023/03/03 06:23:17;;;;;;;;;;;5.90;73.30;;;6.40;50.13;98979.00;5049568;27;114776;-76
2023/03/03 06:25:44;;;;;;;;;;;5.90;73.30;;;6.41;50.07;98980.63;5051294;27;112745;-77
2023/03/03 06:28:10;;;;;;;;;;;5.90;73.40;;;6.43;50.45;98983.09;5048077;27;123768;-76
2023/03/03 06:30:36;;;;;;;;;;;5.90;73.40;;;6.44;50.39;98979.25;5029676;27;123103;-77
2023/03/03 06:33:05;;;;;;;;;;;6.00;73.50;;;6.44;50.17;98987.47;5048719;27;114633;-77
2023/03/03 06:35:31;;;;;;;;;;;6.00;73.60;;;6.48;50.17;98985.84;5037275;27;115291;-76
2023/03/03 06:37:58;;;;;;;;;;;6.00;73.70;;;6.54;50.17;98990.19;5036713;27;124320;-77
2023/03/03 06:40:24;;;;;;;;;;;6.00;73.60;;;6.57;49.70;99000.59;5048886;27;124189;-76
2023/03/03 06:42:50;;;;;;;;;;;6.10;73.50;;;6.59;49.63;98998.41;5063349;27;114163;-77
2023/03/03 06:45:17;;;;;;;;;;;6.10;73.20;;;6.55;49.50;99000.06;5047722;27;113793;-77
2023/03/03 06:47:43;;;;;;;;;;;6.00;72.90;;;6.50;49.67;98997.34;5044660;27;124716;-77
2023/03/03 06:50:11;;;;;;;;;;;6.00;72.80;;;6.48;49.45;98999.56;5062353;27;123010;-76
2023/03/03 06:52:38;;;;;;;;;;;6.00;72.80;;;6.47;49.49;98997.09;5034307;27;113324;-76
2023/03/03 06:55:20;;;;;;;;;;;6.00;72.70;;;6.50;49.26;99004.75;5020366;27;113035;-76
2023/03/03 06:57:48;;;;;;;;;;;6.00;72.70;;;6.47;49.29;99006.13;5045661;27;123049;-77
2023/03/03 07:00:22;;;;;;;;;;;6.00;72.60;;;6.50;49.49;99015.72;5034328;27;123927;-76
2023/03/03 07:03:07;;;;;;;;;;;6.00;72.50;;;6.50;49.53;99008.34;5048840;27;114024;-77
2023/03/03 07:05:33;;;;;;;;;;;6.00;72.50;;;6.48;49.62;99013.28;5043090;27;113946;-77
2023/03/03 07:08:00;;;;;;;;;;;6.00;72.40;;;6.49;49.45;99016.84;5047012;27;123706;-77
2023/03/03 07:10:30;;;;;;;;;;;6.00;72.30;;;6.49;48.98;99020.41;5035780;27;123895;-77
2023/03/03 07:13:21;;;;;;;;;;;6.00;72.20;;;6.50;48.98;99021.22;5047613;27;115504;-77
2023/03/03 07:15:50;;;;;;;;;;;6.00;72.10;;;6.47;48.83;99019.84;5048295;27;113256;-77
2023/03/03 07:18:38;;;;;;;;;;;6.00;72.00;;;6.48;49.26;99026.19;5047566;27;124335;-80
2023/03/03 07:21:35;;;;;;;;;;;6.00;72.00;;;6.47;49.05;99032.75;5034278;27;125033;-77
2023/03/03 07:24:27;;;;;;;;;;;6.00;72.00;;;6.45;48.90;99033.06;5049632;27;114994;-81
2023/03/03 07:27:05;;;;;;;;;;;6.00;71.80;;;6.46;48.68;99033.88;5054571;27;114344;-76
2023/03/03 07:29:33;;;;;;;;;;;6.00;71.70;;;6.44;48.74;99034.13;5048758;27;125042;-76
2023/03/03 07:32:00;;;;;;;;;;;6.00;71.60;;;6.45;48.28;99024.81;5047393;27;121634;-76
2023/03/03 07:34:37;;;;;;;;;;;6.00;71.60;;;6.49;48.76;99030.56;5037384;27;113613;-76
2023/03/03 07:37:12;;;;;;;;;;;6.00;71.60;;;6.49;48.33;99036.88;5045828;27;113650;-76
2023/03/03 07:39:42;;;;;;;;;;;6.00;71.60;;;6.45;48.64;99030.31;5050841;27;124186;-77
2023/03/03 07:42:35;;;;;;;;;;;6.00;71.60;;;6.47;48.35;99033.56;5043057;27;124776;-76
2023/03/03 07:45:03;;;;;;;;;;;6.00;71.50;;;6.44;48.50;99039.63;5043169;27;114451;-76
2023/03/03 07:47:30;;;;;;;;;;;6.00;71.60;;;6.46;48.94;99031.13;5045068;27;113704;-76
2023/03/03 07:49:59;;;;;;;;;;;6.00;71.70;;;6.49;48.62;99036.06;5049758;27;123437;-76
2023/03/03 07:52:38;;;;;;;;;;;6.00;71.50;;;6.50;48.02;99032.19;5051773;27;122993;-75
2023/03/03 07:55:35;;;;;;;;;;;6.00;71.40;;;6.56;48.17;99034.66;5052070;27;115686;-76
2023/03/03 07:58:15;;;;;;;;;;;6.00;71.40;;;6.57;48.16;99036.28;5036849;27;113373;-76
2023/03/03 08:00:44;;;;;;;;;;;6.00;71.20;;;6.57;48.17;99044.53;5052842;27;124242;-78
2023/03/03 08:03:16;;;;;;;;;;;6.00;71.20;;;6.58;48.15;99048.94;5052659;27;123881;-77
2023/03/03 08:05:49;;;;;;;;;;;6.10;71.10;;;6.59;48.51;99047.81;5049035;27;114554;-77
2023/03/03 08:08:35;;;;;;;;;;;6.10;71.10;;;6.62;47.72;99052.75;5051432;27;114061;-77
2023/03/03 08:11:03;;;;;;;;;;;6.10;71.10;;;6.63;48.46;99059.06;5048199;27;124368;-77
2023/03/03 08:13:38;;;;;;;;;;;6.10;71.10;;;6.70;47.79;99053.28;5037382;27;122985;-78
2023/03/03 08:16:10;;;;;;;;;;;6.10;71.20;;;6.74;48.08;99051.59;5050410;27;115425;-80
2023/03/03 08:18:46;;;;;;;;;;;6.20;71.30;;;6.77;47.94;99053.78;5052748;27;114173;-79
2023/03/03 08:21:17;;;;;;;;;;;6.20;71.30;;;6.79;47.92;99057.06;5039319;27;124110;-77
2023/03/03 08:23:43;;;;;;;;;;;6.20;71.20;;;6.87;48.21;99059.22;5049083;27;123764;-77
2023/03/03 08:26:12;;;;;;;;;;;7.60;72.50;;;6.95;47.59;99053.16;5054564;27;113846;-77
2023/03/03 08:28:40;;;;;;;;;;;6.30;71.30;;;7.03;47.46;99046.25;5040417;27;113973;-77
2023/03/03 08:31:06;;;;;;;;;;;6.40;71.30;;;7.08;47.27;99058.03;5050197;27;124122;-78
2023/03/03 08:33:32;;;;;;;;;;;6.50;71.20;;;7.13;47.34;99045.38;5047456;27;124122;-77
2023/03/03 08:35:59;;;;;;;;;;;6.50;71.00;;;7.20;47.28;99043.13;5059066;27;114554;-77
2023/03/03 08:38:25;;;;;;;;;;;6.50;70.80;;;7.22;47.28;99049.97;5067544;27;113753;-76
2023/03/03 08:40:52;;;;;;;;;;;6.60;70.60;;;7.24;46.94;99047.75;5039204;27;124263;-78
2023/03/03 08:43:20;;;;;;;;;;;6.60;70.40;;;7.22;46.89;99043.66;5054736;27;123920;-77
2023/03/03 08:45:48;;;;;;;;;;;6.60;70.00;;;7.18;46.70;99048.09;5054554;27;114608;-80
2023/03/03 08:48:15;;;;;;;;;;;6.60;69.90;;;7.17;46.75;99050.00;5056579;27;113528;-77
2023/03/03 08:50:42;;;;;;;;;;;6.60;69.90;;;7.20;46.73;99051.34;5049218;27;124047;-77
2023/03/03 08:53:09;;;;;;;;;;;6.60;69.60;;;7.22;46.94;99057.41;5035356;27;123277;-77
2023/03/03 08:55:36;;;;;;;;;;;6.70;69.60;;;7.25;46.63;99056.81;5034510;27;114075;-76
2023/03/03 08:58:02;;;;;;;;;;;6.70;69.30;;;7.28;46.50;99064.50;5048446;27;113964;-77
2023/03/03 09:00:28;;;;;;;;;;;6.70;69.30;;;7.33;46.13;99067.22;5049629;27;124201;-76
2023/03/03 09:02:55;;;;;;;;;;;6.80;69.30;;;7.37;46.17;99062.00;5047050;27;124070;-76
2023/03/03 09:05:23;;;;;;;;;;;6.80;69.20;;;7.41;46.09;99068.56;5041621;27;115139;-76
2023/03/03 09:07:52;;;;;;;;;;;6.90;69.20;;;7.47;46.18;99076.50;5046449;27;114900;-78
2023/03/03 09:10:30;;;;;;;;;;;6.90;69.10;;;7.53;45.99;99074.53;5035726;27;123138;-78
2023/03/03 09:13:06;;;;;;;;;;;6.90;68.80;;;7.56;45.80;99073.13;5034416;27;125219;-77
2023/03/03 09:15:34;;;;;;;;;;;7.00;68.80;;;7.57;45.72;99083.00;5032250;27;114174;-77
2023/03/03 09:18:21;;;;;;;;;;;7.00;68.70;;;7.62;45.94;99074.72;5052752;27;113003;-81
2023/03/03 09:20:49;;;;;;;;;;;7.10;68.70;;;7.64;45.94;99078.03;5040105;27;123146;-76
2023/03/03 09:23:32;;;;;;;;;;;7.10;68.70;;;7.69;45.61;99078.00;5051327;27;123137;-76
2023/03/03 09:26:21;;;;;;;;;;;7.10;68.50;;;7.68;45.94;99087.31;5049757;27;115102;-78
2023/03/03 09:28:48;;;;;;;;;;;7.10;68.50;;;7.68;45.76;99090.94;5046891;27;114320;-77
2023/03/03 09:31:30;;;;;;;;;;;7.10;68.50;;;7.72;45.75;99097.47;5048572;27;124904;-77
2023/03/03 09:33:58;;;;;;;;;;;8.40;69.80;;;7.72;45.44;99086.47;5047389;27;123756;-77
2023/03/03 09:36:26;;;;;;;;;;;7.10;68.50;;;7.76;45.29;99094.97;5052809;27;113434;-77
2023/03/03 09:38:54;;;;;;;;;;;7.10;68.70;;;7.86;45.55;99094.91;5052344;27;113982;-79
2023/03/03 09:41:45;;;;;;;;;;;7.20;68.90;;;7.97;45.49;99081.88;5048879;27;124284;-77
2023/03/03 09:44:41;;;;;;;;;;;7.20;68.90;;;8.00;45.15;99085.97;5044384;27;124524;-77
2023/03/03 09:47:27;;;;;;;;;;;7.30;68.40;;;8.05;45.13;99083.19;5051804;27;114551;-77
2023/03/03 09:50:01;;;;;;;;;;;7.30;68.50;;;8.15;45.42;99072.09;5041081;27;113889;-76
2023/03/03 09:52:30;;;;;;;;;;;7.50;68.80;;;8.27;45.38;99079.94;5036392;27;123850;-77
2023/03/03 09:55:10;;;;;;;;;;;7.60;68.70;;;8.32;45.03;99080.72;5047116;27;124253;-76
2023/03/03 09:57:36;;;;;;;;;;;7.60;68.30;;;8.34;45.05;99077.69;5009506;27;114504;-77
2023/03/03 10:00:14;;;;;;;;;;;7.70;68.40;;;8.42;45.22;99076.25;5045125;27;114575;-78
2023/03/03 10:02:44;;;;;;;;;;;7.70;68.50;;;8.51;45.18;99080.00;5024178;27;124081;-77
2023/03/03 10:05:32;;;;;;;;;;;7.90;68.60;;;8.59;44.98;99076.63;5029112;27;123835;-78
2023/03/03 10:08:09;;;;;;;;;;;7.90;68.40;;;8.60;45.06;99087.34;5026053;27;114366;-77
2023/03/03 10:10:47;;;;;;;;;;;8.00;68.30;;;8.68;45.10;99083.13;5032164;27;113022;-80
2023/03/03 10:13:32;;;;;;;;;;;8.10;68.30;;;8.74;44.93;99084.72;5046242;27;124882;-79
2023/03/03 10:16:26;;;;;;;;;;;8.10;68.30;;;8.88;44.84;99084.00;5027237;27;122901;-79
2023/03/03 10:18:57;;;;;;;;;;;8.20;68.40;;;9.01;44.74;99086.88;5032564;27;113842;-77
2023/03/03 10:21:56;;;;;;;;;;;8.40;68.40;;;9.10;44.36;99081.50;5026725;27;113861;-78
2023/03/03 10:24:30;;;;;;;;;;;8.40;68.00;;;9.19;44.31;99084.44;5033040;27;124432;-79
2023/03/03 10:26:59;;;;;;;;;;;8.50;67.80;;;9.23;44.01;99089.03;5038528;27;123990;-78
2023/03/03 10:29:33;;;;;;;;;;;8.50;67.80;;;9.33;44.12;99081.78;5037147;27;115393;-78
2023/03/03 10:32:44;;;;;;;;;;;8.60;67.70;;;9.41;43.98;99075.59;5042438;27;113532;-79
2023/03/03 10:35:22;;;;;;;;;;;8.70;67.60;;;9.44;43.57;99086.03;5027165;27;123823;-78
2023/03/03 10:38:34;;;;;;;;;;;8.80;67.20;;;9.53;43.52;99100.75;5025818;27;122830;-79
2023/03/03 10:41:23;;;;;;;;;;;8.90;67.10;;;9.54;43.01;99083.13;5031230;27;113583;-77
2023/03/03 10:44:18;;;;;;;;;;;8.90;66.40;;;9.50;43.25;99076.53;5045967;27;114814;-76
2023/03/03 10:46:54;;;;;;;;;;;8.90;66.10;;;9.42;42.94;99072.50;5045293;27;123966;-79
2023/03/03 10:49:29;;;;;;;;;;;8.80;65.80;;;9.40;43.11;99079.44;5047970;27;125030;-76
2023/03/03 10:52:10;;;;;;;;;;;8.80;65.90;;;9.38;43.34;99081.69;5065660;27;115464;-77
2023/03/03 10:54:56;;;;;;;;;;;8.70;65.90;;;9.45;43.26;99082.94;5033622;27;113899;-76
2023/03/03 10:57:39;;;;;;;;;;;8.80;66.40;;;9.57;42.98;99071.47;5045352;27;124010;-79
2023/03/03 11:00:27;;;;;;;;;;;8.90;66.30;;;9.67;43.20;99071.31;5041539;27;124860;-78
2023/03/03 11:03:18;;;;;;;;;;;9.00;66.30;;;9.80;43.19;99066.16;5045114;27;114392;-77
2023/03/03 11:05:50;;;;;;;;;;;9.10;66.40;;;9.89;42.81;99072.63;5044097;27;113253;-76
2023/03/03 11:08:26;;;;;;;;;;;9.20;65.70;;;9.95;42.35;99074.19;5047425;27;124590;-76
2023/03/03 11:11:14;;;;;;;;;;;9.30;65.50;;;9.90;42.09;99069.56;5043457;27;124159;-75
2023/03/03 11:14:02;;;;;;;;;;;9.30;64.60;;;9.88;41.97;99069.03;5045125;27;113565;-76
2023/03/03 11:16:37;;;;;;;;;;;9.30;64.60;;;9.93;42.31;99076.41;5040697;27;113735;-76
2023/03/03 11:19:31;;;;;;;;;;;9.30;64.90;;;9.96;42.35;99076.63;5048522;27;123247;-76
2023/03/03 11:22:18;;;;;;;;;;;9.30;64.90;;;10.01;42.36;99078.50;5046027;27;124034;-76
2023/03/03 11:24:51;;;;;;;;;;;9.40;65.00;;;10.06;42.49;99086.69;5050162;27;112804;-76
2023/03/03 11:27:39;;;;;;;;;;;9.40;65.10;;;10.09;42.38;99080.56;5046709;27;113768;-77
2023/03/03 11:30:33;;;;;;;;;;;9.50;65.10;;;10.18;42.54;99083.44;5046974;27;124225;-77
2023/03/03 11:33:09;;;;;;;;;;;9.60;65.30;;;10.29;42.39;99087.72;5034071;27;124131;-77
2023/03/03 11:36:11;;;;;;;;;;;9.70;65.20;;;10.38;41.43;99079.53;5045505;27;114138;-76
2023/03/03 11:38:52;;;;;;;;;;;9.70;64.90;;;10.35;41.60;99088.44;5052151;27;113802;-78
2023/03/03 11:41:32;;;;;;;;;;;9.70;63.90;;;10.33;41.38;99074.94;5048211;27;124652;-76
2023/03/03 11:44:10;;;;;;;;;;;9.70;63.80;;;10.35;41.85;99067.16;5036609;27;124605;-77
2023/03/03 11:46:57;;;;;;;;;;;9.70;64.20;;;10.34;41.15;99061.94;5045310;27;115596;-77